Time;durP1;ratioP1;P1;durP2;ratioP2;P2;SDS_P1;SDS_P2;PMS_P1;PMS_P2;Temp;Humidity;BMP_temperature;BMP_pressure;BME280_temperature;BME280_humidity;BME280_pressure;Samples;Min_cycle;Max_cycle;Signal;HPM_P1;HPM_P2
2022/06/16 00:03:30;;;;;;;10.65;6.65;;;14.60;85.10;;;;;;10264948;28;20558;-82
2022/06/16 00:08:51;;;;;;;10.00;6.93;;;14.60;83.90;;;;;;10264691;28;20214;-83
2022/06/16 00:14:13;;;;;;;9.65;6.63;;;14.60;90.10;;;;;;10264305;28;20226;-83
2022/06/16 00:19:34;;;;;;;13.23;6.97;;;14.60;97.10;;;;;;10265875;28;20201;-82
2022/06/16 00:24:55;;;;;;;10.57;7.45;;;14.60;88.90;;;;;;10263480;28;20195;-82
2022/06/16 00:30:17;;;;;;;12.38;6.38;;;14.50;74.40;;;;;;10286953;28;20234;-83
2022/06/16 00:35:39;;;;;;;14.88;6.80;;;14.50;90.20;;;;;;10244885;29;20456;-83
2022/06/16 00:41:02;;;;;;;8.52;6.00;;;14.50;70.90;;;;;;10239571;29;20209;-82
2022/06/16 00:46:23;;;;;;;12.45;6.63;;;14.40;81.90;;;;;;10290068;28;20407;-83
2022/06/16 00:51:49;;;;;;;10.23;6.43;;;14.40;86.10;;;;;;10276311;28;20409;-82
2022/06/16 00:57:20;;;;;;;13.93;7.25;;;14.40;68.50;;;;;;10276290;28;20233;-83
2022/06/16 01:02:41;;;;;;;12.82;7.82;;;14.50;71.50;;;;;;10262169;28;20283;-83
2022/06/16 01:08:04;;;;;;;15.85;8.68;;;14.50;77.70;;;;;;10276509;28;20192;-82
2022/06/16 01:13:41;;;;;;;15.15;7.78;;;14.60;65.40;;;;;;10261958;28;20226;-83
2022/06/16 01:19:41;;;;;;;11.82;7.43;;;14.60;54.00;;;;;;10261870;28;20205;-83
2022/06/16 01:25:28;;;;;;;14.90;7.18;;;14.70;59.60;;;;;;10113321;29;20217;-82
2022/06/16 01:31:07;;;;;;;12.43;7.53;;;14.60;55.30;;;;;;10099981;29;20228;-82
2022/06/16 01:36:47;;;;;;;9.82;5.60;;;14.50;62.40;;;;;;10085852;29;20276;-83
2022/06/16 01:42:19;;;;;;;8.68;5.40;;;14.50;57.50;;;;;;10139164;29;20208;-83
2022/06/16 01:47:49;;;;;;;10.85;5.63;;;14.50;56.70;;;;;;10127670;29;20279;-82
2022/06/16 01:53:21;;;;;;;7.07;4.60;;;14.50;52.50;;;;;;10085451;29;20271;-83
2022/06/16 01:58:49;;;;;;;8.57;4.30;;;14.40;44.40;;;;;;10136114;29;20205;-83
2022/06/16 02:04:18;;;;;;;6.82;4.47;;;14.40;45.20;;;;;;10260334;28;20542;-82
2022/06/16 02:09:43;;;;;;;8.10;4.90;;;14.40;47.10;;;;;;10260622;29;20224;-82
2022/06/16 02:15:37;;;;;;;5.70;4.00;;;14.40;42.00;;;;;;10273789;28;20488;-82
2022/06/16 02:21:39;;;;;;;8.13;4.65;;;14.20;47.80;;;;;;10140126;29;20510;-83
2022/06/16 02:27:03;;;;;;;4.82;3.65;;;14.10;70.00;;;;;;10114252;29;20199;-83
2022/06/16 02:32:32;;;;;;;8.57;4.65;;;14.10;65.70;;;;;;10122408;29;20243;-83
2022/06/16 02:38:21;;;;;;;8.25;4.70;;;14.20;59.00;;;;;;10124278;29;20256;-82
2022/06/16 02:43:49;;;;;;;7.97;5.28;;;14.10;53.70;;;;;;10106257;29;20209;-83
2022/06/16 02:49:29;;;;;;;8.63;5.13;;;14.10;56.40;;;;;;10108140;29;20447;-83
2022/06/16 02:55:05;;;;;;;11.27;5.18;;;14.10;48.90;;;;;;10119089;29;20258;-82
2022/06/16 03:00:43;;;;;;;6.85;4.78;;;14.10;54.30;;;;;;10227661;29;20394;-83
2022/06/16 03:06:05;;;;;;;7.10;4.90;;;14.10;56.10;;;;;;10237904;29;20203;-83
2022/06/16 03:11:27;;;;;;;7.03;4.45;;;14.10;57.70;;;;;;10257097;29;20232;-83
2022/06/16 03:16:49;;;;;;;6.20;4.43;;;14.10;53.70;;;;;;10243176;29;20201;-83
2022/06/16 03:22:12;;;;;;;6.28;3.70;;;14.20;50.80;;;;;;10245613;29;20275;-83
2022/06/16 03:27:36;;;;;;;7.18;4.47;;;14.30;44.40;;;;;;10286165;28;20276;-82
2022/06/16 03:32:57;;;;;;;8.80;4.93;;;14.40;38.60;;;;;;10280673;28;20261;-83
2022/06/16 03:43:41;;;;;;;13.57;6.78;;;14.40;54.20;;;;;;10279134;28;20480;-82
2022/06/16 03:49:07;;;;;;;13.43;6.70;;;14.40;62.40;;;;;;10264862;28;20233;-83
2022/06/16 03:54:48;;;;;;;9.50;5.70;;;14.30;70.70;;;;;;10277908;28;20236;-83
2022/06/16 04:00:12;;;;;;;10.75;6.13;;;14.30;67.70;;;;;;10264971;29;20205;-83
2022/06/16 04:05:40;;;;;;;7.28;5.13;;;14.30;84.00;;;;;;10277927;28;20233;-83
2022/06/16 04:16:49;;;;;;;6.72;4.70;;;14.60;56.60;;;;;;10238526;29;20204;-83
2022/06/16 04:22:19;;;;;;;8.00;4.88;;;14.80;53.30;;;;;;10229713;28;20190;-83
2022/06/16 04:27:49;;;;;;;9.75;5.25;;;15.00;44.30;;;;;;10285653;28;20204;-83
2022/06/16 04:33:12;;;;;;;6.53;4.43;;;15.10;36.00;;;;;;10291552;28;20267;-83
2022/06/16 04:38:35;;;;;;;5.05;3.60;;;15.20;5.60;;;;;;10265246;28;20202;-82
2022/06/16 04:43:57;;;;;;;3.65;2.67;;;15.20;1.00;;;;;;10272742;29;20560;-83
2022/06/16 04:49:18;;;;;;;4.13;2.38;;;15.30;1.00;;;;;;10264024;28;20194;-83
2022/06/16 04:54:46;;;;;;;3.17;1.80;;;15.40;1.00;;;;;;10283513;28;20243;-82
2022/06/16 05:00:34;;;;;;;2.65;1.92;;;15.50;1.00;;;;;;10155659;29;20214;-83
2022/06/16 05:06:25;;;;;;;2.83;2.08;;;15.70;1.00;;;;;;10062358;29;20518;-82
2022/06/16 05:12:10;;;;;;;2.17;1.60;;;15.90;1.00;;;;;;9980726;29;20241;-83
2022/06/16 05:17:45;;;;;;;3.00;1.80;;;16.10;1.00;;;;;;10000446;29;20214;-83
2022/06/16 05:23:26;;;;;;;2.58;1.80;;;16.30;1.00;;;;;;9985982;29;20211;-83
2022/06/16 05:29:06;;;;;;;2.42;1.70;;;16.50;1.00;;;;;;9959110;29;20214;-83
2022/06/16 05:34:50;;;;;;;4.78;2.58;;;16.50;1.00;;;;;;10012793;29;20251;-82
2022/06/16 05:40:26;;;;;;;3.88;2.00;;;16.70;1.00;;;;;;10078985;29;20217;-83
2022/06/16 05:46:18;;;;;;;3.30;1.92;;;16.70;1.00;;;;;;10196023;28;20288;-82
2022/06/16 05:51:53;;;;;;;3.40;2.00;;;16.80;1.00;;;;;;10270420;28;20230;-83
2022/06/16 05:57:21;;;;;;;3.08;2.50;;;17.00;1.00;;;;;;10237069;29;20234;-83
2022/06/16 06:02:45;;;;;;;3.90;2.40;;;17.30;1.00;;;;;;10212887;29;20207;-83
2022/06/16 06:19:26;;;;;;;2.72;1.77;;;17.70;99.90;;;;;;10277177;28;20202;-83
2022/06/16 06:24:55;;;;;;;4.00;1.60;;;17.80;99.90;;;;;;10268389;28;20517;-82
2022/06/16 06:30:29;;;;;;;1.92;1.58;;;18.10;74.20;;;;;;10268680;28;20500;-81
2022/06/16 06:35:55;;;;;;;1.92;1.50;;;18.50;99.90;;;;;;10240254;29;20199;-82
2022/06/16 06:41:17;;;;;;;3.60;1.73;;;18.70;74.20;;;;;;10269446;28;20250;-81
2022/06/16 06:46:38;;;;;;;2.25;1.27;;;19.00;7.10;;;;;;10267285;28;20199;-82
2022/06/16 06:52:00;;;;;;;1.85;1.00;;;19.20;1.00;;;;;;10280548;28;20231;-82
2022/06/16 06:57:26;;;;;;;2.80;1.10;;;19.20;1.00;;;;;;10243602;29;20314;-82
2022/06/16 07:02:47;;;;;;;2.03;1.00;;;19.20;1.00;;;;;;10244027;29;20426;-82
2022/06/16 07:08:08;;;;;;;2.58;1.40;;;19.30;1.00;;;;;;10267032;28;20204;-83
2022/06/16 07:13:29;;;;;;;2.60;1.30;;;19.30;1.00;;;;;;10280071;28;20226;-83
2022/06/16 07:18:51;;;;;;;2.13;1.02;;;19.50;1.00;;;;;;10266480;28;20203;-83
2022/06/16 07:24:12;;;;;;;3.47;1.38;;;19.50;99.90;;;;;;10265981;28;20199;-83
2022/06/16 07:29:34;;;;;;;1.77;1.20;;;19.60;99.90;;;;;;10301605;28;20194;-82
2022/06/16 07:34:58;;;;;;;3.22;1.42;;;19.90;99.90;;;;;;10300235;28;20234;-83
2022/06/16 07:40:20;;;;;;;1.30;1.00;;;20.10;1.00;;;;;;10266477;28;20199;-83
2022/06/16 07:45:41;;;;;;;2.88;1.27;;;20.80;1.00;;;;;;10265514;28;20227;-83
2022/06/16 07:51:03;;;;;;;1.90;1.23;;;20.90;1.00;;;;;;10264851;28;20501;-83
2022/06/16 07:56:24;;;;;;;2.45;1.17;;;20.80;99.90;;;;;;10265264;28;20241;-83
2022/06/16 08:01:46;;;;;;;1.23;1.00;;;21.00;1.00;;;;;;10252132;28;20195;-83
2022/06/16 08:07:07;;;;;;;1.85;1.10;;;21.50;1.00;;;;;;10265195;28;20226;-83
2022/06/16 08:12:28;;;;;;;3.15;1.30;;;22.00;1.00;;;;;;10279266;28;20572;-83
2022/06/16 08:17:52;;;;;;;3.75;1.20;;;22.80;99.90;;;;;;10266405;28;20191;-83
2022/06/16 08:23:14;;;;;;;4.43;1.23;;;23.30;99.90;;;;;;10265455;28;20278;-83
2022/06/16 08:28:36;;;;;;;2.53;1.20;;;23.70;1.00;;;;;;10291878;28;20217;-83
2022/06/16 08:33:59;;;;;;;2.80;1.15;;;23.90;1.00;;;;;;10294254;28;20458;-83
2022/06/16 08:39:20;;;;;;;3.65;1.30;;;24.40;1.00;;;;;;10263470;28;20222;-82
2022/06/16 08:44:47;;;;;;;2.47;1.20;;;24.40;1.00;;;;;;10261620;28;20561;-83
2022/06/16 08:50:36;;;;;;;1.58;1.17;;;24.20;1.00;;;;;;10247877;28;20227;-83
2022/06/16 08:56:05;;;;;;;2.53;1.13;;;24.10;1.00;;;;;;10276112;28;20270;-82
2022/06/16 09:01:38;;;;;;;6.30;1.48;;;24.10;1.00;;;;;;10277064;28;20231;-82
2022/06/16 09:07:24;;;;;;;4.18;1.00;;;23.80;1.00;;;;;;10262607;28;20250;-82
2022/06/16 09:13:32;;;;;;;7.95;1.33;;;23.90;1.00;;;;;;10263127;29;20225;-82
2022/06/16 09:19:02;;;;;;;3.90;1.15;;;24.10;1.00;;;;;;10267941;28;20183;-83
2022/06/16 09:24:51;;;;;;;2.22;1.00;;;23.80;1.00;;;;;;10248512;28;20199;-83
2022/06/16 09:30:22;;;;;;;1.42;1.08;;;23.80;1.00;;;;;;10225384;28;20195;-83
2022/06/16 09:35:52;;;;;;;3.25;1.10;;;24.30;1.00;;;;;;10247983;28;20274;-82
2022/06/16 09:47:19;;;;;;;2.58;0.98;;;24.10;1.00;;;;;;10265342;28;20454;-82
2022/06/16 09:52:53;;;;;;;3.08;1.15;;;24.30;1.00;;;;;;10251813;28;20270;-81
2022/06/16 09:58:21;;;;;;;2.60;1.30;;;24.30;1.00;;;;;;10266353;28;20446;-82
2022/06/16 10:04:01;;;;;;;1.77;1.20;;;24.90;1.00;;;;;;10268233;28;20231;-82
2022/06/16 10:09:58;;;;;;;1.70;0.80;;;25.20;1.00;;;;;;10266679;28;20270;-83
2022/06/16 10:15:40;;;;;;;4.63;1.30;;;25.20;1.00;;;;;;10140269;29;20237;-83
2022/06/16 10:21:07;;;;;;;2.08;1.00;;;24.80;1.00;;;;;;10166813;29;20491;-82
2022/06/16 10:26:28;;;;;;;2.15;1.00;;;24.30;1.00;;;;;;10184118;29;20644;-83
2022/06/16 10:31:54;;;;;;;2.75;0.95;;;24.00;1.00;;;;;;10197663;29;20239;-82
2022/06/16 10:37:22;;;;;;;3.03;1.38;;;23.90;1.00;;;;;;10167112;29;20209;-82
2022/06/16 10:42:46;;;;;;;2.50;1.00;;;23.70;1.00;;;;;;10181778;29;20259;-81
2022/06/16 10:48:24;;;;;;;1.27;0.65;;;23.90;1.00;;;;;;10217857;29;20211;-83
2022/06/16 10:54:00;;;;;;;4.55;1.30;;;24.10;1.00;;;;;;10250833;28;20557;-83
2022/06/16 10:59:28;;;;;;;1.75;1.00;;;24.00;1.00;;;;;;10263451;28;20199;-83
2022/06/16 11:05:09;;;;;;;4.47;1.38;;;24.00;1.00;;;;;;10259802;28;20501;-83
2022/06/16 11:10:34;;;;;;;1.80;1.08;;;24.00;99.90;;;;;;10280408;28;20218;-83
2022/06/16 11:15:57;;;;;;;3.15;0.93;;;23.60;99.90;;;;;;10273393;28;20231;-81
2022/06/16 11:21:26;;;;;;;5.68;1.13;;;23.90;1.00;;;;;;10280309;28;20207;-82
2022/06/16 11:27:00;;;;;;;2.50;1.20;;;23.70;99.90;;;;;;10279833;28;20201;-82
2022/06/16 11:32:31;;;;;;;3.30;1.08;;;23.30;99.90;;;;;;10277639;28;20227;-82
2022/06/16 11:38:47;;;;;;;2.40;1.23;;;23.00;99.90;;;;;;10270663;28;20278;-82
2022/06/16 11:44:39;;;;;;;3.55;1.13;;;23.20;99.90;;;;;;10112826;29;20293;-81
2022/06/16 11:50:10;;;;;;;1.67;1.00;;;23.30;99.90;;;;;;10124273;29;20273;-82
2022/06/16 11:55:55;;;;;;;3.88;1.50;;;23.40;99.90;;;;;;10117442;29;20245;-82
2022/06/16 12:01:38;;;;;;;2.95;1.38;;;23.20;99.90;;;;;;10130378;29;20215;-82
2022/06/16 12:07:22;;;;;;;3.47;1.27;;;23.10;99.90;;;;;;10130683;29;20216;-82
2022/06/16 12:13:05;;;;;;;2.33;1.35;;;23.70;99.90;;;;;;10128562;29;20289;-82
2022/06/16 12:18:42;;;;;;;1.23;1.00;;;24.20;99.90;;;;;;10193765;28;20282;-82
2022/06/16 12:24:32;;;;;;;3.15;1.23;;;24.60;91.60;;;;;;10253533;28;20270;-82
2022/06/16 12:30:23;;;;;;;2.25;1.10;;;24.10;99.90;;;;;;10296304;28;20191;-82
2022/06/16 12:36:16;;;;;;;4.25;1.52;;;24.30;99.90;;;;;;10263800;28;20234;-83
2022/06/16 12:41:48;;;;;;;2.08;1.05;;;25.00;99.90;;;;;;10179119;29;20200;-83
2022/06/16 12:47:17;;;;;;;1.85;1.00;;;25.20;99.90;;;;;;10165762;29;20467;-82
2022/06/16 12:52:57;;;;;;;2.08;1.00;;;25.00;59.70;;;;;;10167796;29;20241;-83
2022/06/16 12:58:30;;;;;;;3.00;1.05;;;25.00;99.90;;;;;;10179181;29;20391;-82
2022/06/16 13:04:08;;;;;;;1.48;1.05;;;24.50;58.20;;;;;;10178216;29;20517;-83
2022/06/16 13:09:29;;;;;;;8.98;1.20;;;24.80;50.50;;;;;;10191604;29;20256;-82
2022/06/16 13:14:57;;;;;;;1.48;0.88;;;24.60;92.40;;;;;;10206502;28;20559;-83
2022/06/16 13:20:23;;;;;;;2.55;1.00;;;24.70;34.30;;;;;;10262405;28;20203;-84
2022/06/16 13:26:15;;;;;;;1.10;1.00;;;24.50;28.70;;;;;;10249487;28;20229;-84
2022/06/16 13:32:36;;;;;;;1.73;0.90;;;25.00;45.80;;;;;;10274723;28;20211;-84
2022/06/16 13:38:04;;;;;;;1.92;1.00;;;25.00;1.90;;;;;;10262615;28;20564;-84
2022/06/16 13:43:35;;;;;;;4.13;1.35;;;24.70;13.20;;;;;;10250677;29;20271;-84
2022/06/16 13:49:05;;;;;;;1.95;1.38;;;24.80;42.10;;;;;;10291885;28;20199;-84
2022/06/16 13:54:35;;;;;;;2.45;1.20;;;24.70;92.00;;;;;;10251957;28;20247;-83
2022/06/16 14:00:04;;;;;;;1.88;1.15;;;24.70;48.70;;;;;;10245806;29;20320;-83
2022/06/16 14:05:34;;;;;;;2.20;1.38;;;24.80;49.90;;;;;;10261694;28;20510;-84
2022/06/16 14:11:25;;;;;;;3.30;1.35;;;24.50;28.50;;;;;;10261193;28;20238;-84
2022/06/16 14:16:50;;;;;;;2.50;1.17;;;24.50;9.70;;;;;;10260376;29;20206;-84
2022/06/16 14:22:18;;;;;;;4.30;1.13;;;24.40;37.20;;;;;;10260657;28;20545;-83
2022/06/16 14:27:55;;;;;;;4.03;1.58;;;24.20;14.40;;;;;;10260493;28;20203;-83
2022/06/16 14:33:43;;;;;;;1.55;1.20;;;24.00;41.20;;;;;;10260013;28;20230;-83
2022/06/16 14:39:15;;;;;;;1.83;1.02;;;24.00;38.70;;;;;;10189753;29;20216;-84
2022/06/16 14:44:51;;;;;;;4.47;1.60;;;23.40;11.90;;;;;;10196647;29;20211;-83
2022/06/16 14:50:24;;;;;;;5.05;1.85;;;23.10;92.70;;;;;;10183875;29;20545;-84
2022/06/16 14:56:02;;;;;;;1.85;1.10;;;22.80;99.90;;;;;;10199611;29;20238;-84
2022/06/16 15:01:44;;;;;;;1.23;1.10;;;22.70;99.90;;;;;;10170113;29;20213;-82
2022/06/16 15:07:05;;;;;;;3.63;1.40;;;22.60;99.90;;;;;;10170587;29;20208;-84
2022/06/16 15:12:28;;;;;;;3.00;1.42;;;22.40;99.90;;;;;;10188803;29;20547;-82
2022/06/16 15:18:13;;;;;;;2.47;1.00;;;22.40;99.90;;;;;;10266542;28;20199;-83
2022/06/16 15:23:37;;;;;;;1.08;0.90;;;22.30;99.90;;;;;;10266122;28;20202;-82
2022/06/16 15:29:05;;;;;;;1.35;0.90;;;22.20;99.90;;;;;;10296944;28;20218;-82
2022/06/16 15:40:07;;;;;;;3.65;1.40;;;22.20;99.90;;;;;;10266017;28;20402;-83
2022/06/16 15:45:34;;;;;;;3.25;1.20;;;22.30;99.90;;;;;;10279733;29;20195;-82
2022/06/16 15:51:03;;;;;;;3.55;1.27;;;22.10;99.90;;;;;;10242966;28;20497;-82
2022/06/16 15:56:32;;;;;;;2.83;1.50;;;22.00;99.90;;;;;;10265362;28;20258;-83
2022/06/16 16:01:55;;;;;;;2.63;1.52;;;21.80;99.90;;;;;;10264270;28;20215;-83
2022/06/16 16:07:17;;;;;;;3.20;1.05;;;21.50;1.00;;;;;;10264449;28;20254;-84
2022/06/16 16:12:38;;;;;;;2.72;1.40;;;21.30;1.00;;;;;;10279452;28;20215;-82
2022/06/16 16:18:02;;;;;;;2.50;1.10;;;21.20;1.00;;;;;;10265147;28;20203;-82
2022/06/16 16:23:50;;;;;;;3.55;1.38;;;21.10;1.00;;;;;;10264398;28;20222;-84
2022/06/16 16:29:20;;;;;;;2.90;1.02;;;21.10;1.00;;;;;;10297747;28;20205;-83
2022/06/16 16:34:49;;;;;;;3.28;1.15;;;21.00;1.00;;;;;;10315309;28;20436;-82
2022/06/16 16:40:20;;;;;;;1.67;0.93;;;20.90;1.00;;;;;;10266712;28;20218;-82
2022/06/16 16:45:49;;;;;;;11.77;1.75;;;20.90;1.00;;;;;;10263769;28;20506;-82
2022/06/16 16:51:13;;;;;;;6.55;1.58;;;20.70;1.00;;;;;;10265349;28;20486;-82
2022/06/16 16:56:37;;;;;;;1.83;1.17;;;20.60;1.00;;;;;;10276594;28;20290;-82
2022/06/16 17:01:58;;;;;;;1.90;1.25;;;20.50;1.00;;;;;;10263198;28;20219;-81
2022/06/16 17:07:19;;;;;;;4.57;1.30;;;20.30;17.90;;;;;;10262147;28;20207;-82
2022/06/16 17:12:43;;;;;;;2.33;1.40;;;20.40;99.90;;;;;;10275258;28;20215;-82
2022/06/16 17:18:04;;;;;;;2.72;1.70;;;20.30;99.90;;;;;;10262520;28;20251;-82
2022/06/16 17:23:26;;;;;;;4.22;3.25;;;20.20;99.90;;;;;;10275735;28;20421;-82
2022/06/16 17:28:47;;;;;;;5.25;1.40;;;20.20;99.90;;;;;;10276180;28;20226;-82
2022/06/16 17:34:22;;;;;;;2.10;1.13;;;20.10;99.90;;;;;;10248026;28;20484;-82
2022/06/16 17:39:43;;;;;;;2.33;1.30;;;20.00;99.90;;;;;;10260514;28;20474;-82
2022/06/16 17:45:11;;;;;;;1.50;0.93;;;20.00;99.90;;;;;;10261633;28;20286;-82
2022/06/16 17:50:36;;;;;;;2.13;1.10;;;20.00;99.90;;;;;;10260604;28;20207;-82
2022/06/16 18:01:37;;;;;;;11.65;1.45;;;19.80;99.90;;;;;;10261303;29;20199;-83
2022/06/16 18:06:59;;;;;;;2.08;1.45;;;19.60;99.90;;;;;;10274421;28;20354;-82
2022/06/16 18:12:28;;;;;;;5.00;1.35;;;19.50;99.90;;;;;;10275920;29;20266;-83
2022/06/16 18:17:54;;;;;;;2.60;1.50;;;19.30;1.00;;;;;;10289009;28;20210;-83
2022/06/16 18:23:18;;;;;;;1.27;1.00;;;19.10;1.00;;;;;;10248996;28;20270;-83
2022/06/16 18:28:39;;;;;;;2.42;1.35;;;19.00;1.00;;;;;;10288749;28;20194;-83
2022/06/16 18:34:02;;;;;;;5.28;1.65;;;18.80;1.00;;;;;;10313972;28;20222;-83
2022/06/16 18:39:25;;;;;;;3.33;1.80;;;18.70;1.00;;;;;;10314836;28;20195;-83
2022/06/16 18:44:47;;;;;;;2.70;1.40;;;18.60;99.90;;;;;;10280339;28;20229;-83
2022/06/16 18:50:14;;;;;;;2.17;1.80;;;18.50;1.00;;;;;;10260019;28;20230;-83
2022/06/16 18:55:35;;;;;;;2.95;1.50;;;18.40;99.90;;;;;;10260150;28;20250;-82
2022/06/16 19:00:57;;;;;;;5.47;2.40;;;18.30;1.00;;;;;;10274142;28;20192;-82
2022/06/16 19:06:21;;;;;;;4.85;2.40;;;18.20;1.00;;;;;;10233836;29;20202;-83
2022/06/16 19:17:27;;;;;;;7.22;3.78;;;18.00;99.90;;;;;;10249482;28;20214;-83
2022/06/16 19:22:49;;;;;;;5.25;3.35;;;18.00;1.00;;;;;;10206569;29;20208;-83
2022/06/16 19:28:11;;;;;;;4.00;2.13;;;17.90;1.00;;;;;;10282665;28;20199;-83
2022/06/16 19:33:32;;;;;;;5.45;2.30;;;17.80;1.00;;;;;;10292792;28;20234;-83
2022/06/16 19:38:57;;;;;;;4.05;1.95;;;17.70;1.00;;;;;;10319663;28;20505;-83
2022/06/16 19:55:46;;;;;;;3.08;1.85;;;17.40;1.00;;;;;;10265980;28;20427;-83
2022/06/16 20:01:08;;;;;;;3.05;1.58;;;17.30;1.00;;;;;;10265253;28;20517;-82
2022/06/16 20:06:29;;;;;;;3.58;1.20;;;17.20;1.00;;;;;;10265069;28;20212;-82
2022/06/16 20:11:52;;;;;;;1.85;1.15;;;17.10;1.00;;;;;;10265474;28;20206;-83
2022/06/16 20:17:13;;;;;;;6.68;1.80;;;17.00;99.90;;;;;;10264741;28;20227;-84
2022/06/16 20:22:35;;;;;;;2.60;1.50;;;16.90;99.90;;;;;;10264804;28;20500;-83
2022/06/16 20:27:56;;;;;;;2.92;1.58;;;16.80;1.00;;;;;;10256531;28;20285;-83
2022/06/16 20:33:21;;;;;;;4.35;2.00;;;16.70;1.00;;;;;;10279911;28;20244;-82
2022/06/16 20:39:04;;;;;;;6.30;2.25;;;16.60;99.90;;;;;;10281037;28;20195;-82
2022/06/16 20:44:27;;;;;;;2.40;1.48;;;16.50;1.00;;;;;;10265947;28;20201;-83
2022/06/16 20:49:50;;;;;;;2.25;1.48;;;16.40;1.00;;;;;;10265292;28;20211;-83
2022/06/16 20:55:21;;;;;;;2.22;1.40;;;16.30;99.90;;;;;;10265702;28;20257;-83
2022/06/16 21:06:24;;;;;;;3.05;1.27;;;16.10;1.00;;;;;;10266370;28;20201;-83
2022/06/16 21:17:28;;;;;;;5.15;1.58;;;15.90;1.00;;;;;;10263788;28;20248;-83
2022/06/16 21:22:51;;;;;;;1.38;1.10;;;15.80;1.00;;;;;;10277992;28;20512;-83
2022/06/16 21:28:13;;;;;;;5.07;1.48;;;15.70;1.00;;;;;;10301248;28;20197;-80
2022/06/16 21:33:35;;;;;;;3.40;1.45;;;15.70;1.00;;;;;;10226021;29;20244;-83
2022/06/16 21:38:58;;;;;;;1.60;1.38;;;15.60;1.00;;;;;;10261997;29;20224;-83
2022/06/16 21:44:19;;;;;;;3.47;1.75;;;15.60;1.00;;;;;;10261568;28;20515;-82
2022/06/16 21:49:52;;;;;;;3.22;1.80;;;15.40;1.00;;;;;;10273631;28;20208;-81
2022/06/16 21:55:18;;;;;;;2.70;1.58;;;15.40;1.00;;;;;;10260659;28;20244;-83
2022/06/16 22:00:39;;;;;;;2.53;1.85;;;15.30;1.00;;;;;;10274263;28;20238;-83
2022/06/16 22:06:00;;;;;;;4.35;1.58;;;15.30;1.00;;;;;;10274823;28;20196;-84
2022/06/16 22:17:20;;;;;;;2.78;1.38;;;15.20;1.00;;;;;;10179026;29;20572;-83
2022/06/16 22:22:41;;;;;;;3.50;1.30;;;15.20;1.00;;;;;;10179356;29;20199;-82
2022/06/16 22:28:07;;;;;;;2.17;1.52;;;15.20;1.00;;;;;;10211259;29;20202;-82
2022/06/16 22:33:29;;;;;;;10.38;1.65;;;15.10;1.00;;;;;;10176495;29;20234;-83
2022/06/16 22:38:50;;;;;;;2.25;1.20;;;15.10;1.00;;;;;;10190210;29;20289;-82
2022/06/16 22:44:21;;;;;;;2.63;1.42;;;15.00;1.00;;;;;;10178690;29;20267;-83
2022/06/16 22:49:46;;;;;;;2.83;1.40;;;15.00;1.00;;;;;;10208469;29;20222;-83
2022/06/16 23:01:38;;;;;;;1.95;1.20;;;14.90;1.00;;;;;;10276842;28;20206;-82
2022/06/16 23:06:59;;;;;;;2.03;1.00;;;14.90;1.00;;;;;;10266934;29;20395;-83
2022/06/16 23:12:22;;;;;;;2.15;1.70;;;14.80;1.00;;;;;;10267227;28;20206;-83
2022/06/16 23:17:51;;;;;;;4.93;1.88;;;14.80;1.00;;;;;;10266938;28;20283;-83
2022/06/16 23:23:17;;;;;;;2.42;1.50;;;14.70;1.00;;;;;;10266778;28;20589;-83
2022/06/16 23:28:39;;;;;;;2.63;1.50;;;14.70;1.00;;;;;;10288619;28;20193;-83
2022/06/16 23:34:02;;;;;;;3.30;2.08;;;14.60;1.00;;;;;;10266560;28;20294;-83
2022/06/16 23:39:24;;;;;;;2.88;1.52;;;14.60;1.00;;;;;;10279925;28;20482;-83
2022/06/16 23:44:45;;;;;;;3.60;1.73;;;14.50;1.00;;;;;;10265802;28;20210;-83
2022/06/16 23:50:08;;;;;;;4.28;1.60;;;14.50;1.00;;;;;;10265237;28;20280;-83
2022/06/16 23:55:31;;;;;;;3.17;2.08;;;14.50;1.00;;;;;;10265045;28;20325;-83
